sensor_id;sensor_type;location;lat;lon;timestamp;temperature;humidity
44271;DHT22;29963;44.594;11.368;2024-03-29T00:00:39;11.60;99.90
44271;DHT22;29963;44.594;11.368;2024-03-29T00:03:06;11.50;99.90
44271;DHT22;29963;44.594;11.368;2024-03-29T00:05:35;11.60;99.90
44271;DHT22;29963;44.594;11.368;2024-03-29T00:08:01;11.60;99.90
44271;DHT22;29963;44.594;11.368;2024-03-29T00:10:27;11.60;99.90
44271;DHT22;29963;44.594;11.368;2024-03-29T00:12:53;11.70;99.90
44271;DHT22;29963;44.594;11.368;2024-03-29T00:15:18;11.60;99.90
44271;DHT22;29963;44.594;11.368;2024-03-29T00:17:44;11.50;99.90
44271;DHT22;29963;44.594;11.368;2024-03-29T00:20:10;11.50;99.90
44271;DHT22;29963;44.594;11.368;2024-03-29T00:22:37;11.40;99.90
44271;DHT22;29963;44.594;11.368;2024-03-29T00:25:03;11.30;99.90
44271;DHT22;29963;44.594;11.368;2024-03-29T00:27:29;11.40;99.90
44271;DHT22;29963;44.594;11.368;2024-03-29T00:29:56;11.40;99.90
44271;DHT22;29963;44.594;11.368;2024-03-29T00:32:22;11.50;99.90
44271;DHT22;29963;44.594;11.368;2024-03-29T00:34:50;11.50;99.90
44271;DHT22;29963;44.594;11.368;2024-03-29T00:37:16;11.50;99.90
44271;DHT22;29963;44.594;11.368;2024-03-29T00:39:41;11.50;99.90
44271;DHT22;29963;44.594;11.368;2024-03-29T00:42:08;11.60;99.90
44271;DHT22;29963;44.594;11.368;2024-03-29T00:44:41;11.60;99.90
44271;DHT22;29963;44.594;11.368;2024-03-29T00:47:07;11.50;99.90
44271;DHT22;29963;44.594;11.368;2024-03-29T00:49:33;11.50;99.90
44271;DHT22;29963;44.594;11.368;2024-03-29T00:52:00;11.50;99.90
44271;DHT22;29963;44.594;11.368;2024-03-29T00:54:25;11.50;99.90
44271;DHT22;29963;44.594;11.368;2024-03-29T00:56:51;11.40;99.90
44271;DHT22;29963;44.594;11.368;2024-03-29T00:59:18;11.40;99.90
44271;DHT22;29963;44.594;11.368;2024-03-29T01:01:44;11.40;99.90
44271;DHT22;29963;44.594;11.368;2024-03-29T01:04:10;11.40;99.90
44271;DHT22;29963;44.594;11.368;2024-03-29T01:06:35;11.40;99.90
44271;DHT22;29963;44.594;11.368;2024-03-29T01:09:01;11.20;99.90
44271;DHT22;29963;44.594;11.368;2024-03-29T01:11:28;11.30;99.90
44271;DHT22;29963;44.594;11.368;2024-03-29T01:13:54;11.30;99.90
44271;DHT22;29963;44.594;11.368;2024-03-29T01:16:20;11.30;99.90
44271;DHT22;29963;44.594;11.368;2024-03-29T01:18:45;11.40;99.90
44271;DHT22;29963;44.594;11.368;2024-03-29T01:21:12;11.30;99.90
44271;DHT22;29963;44.594;11.368;2024-03-29T01:23:38;11.30;99.90
44271;DHT22;29963;44.594;11.368;2024-03-29T01:26:05;11.30;99.90
44271;DHT22;29963;44.594;11.368;2024-03-29T01:28:31;11.30;99.90
44271;DHT22;29963;44.594;11.368;2024-03-29T01:30:57;11.30;99.90
44271;DHT22;29963;44.594;11.368;2024-03-29T01:33:24;11.40;99.90
44271;DHT22;29963;44.594;11.368;2024-03-29T01:35:50;11.30;99.90
44271;DHT22;29963;44.594;11.368;2024-03-29T01:38:16;11.30;99.90
44271;DHT22;29963;44.594;11.368;2024-03-29T01:40:41;11.20;99.90
44271;DHT22;29963;44.594;11.368;2024-03-29T01:43:07;11.20;99.90
44271;DHT22;29963;44.594;11.368;2024-03-29T01:45:35;11.20;99.90
44271;DHT22;29963;44.594;11.368;2024-03-29T01:48:04;11.20;99.90
44271;DHT22;29963;44.594;11.368;2024-03-29T01:50:30;11.20;99.90
44271;DHT22;29963;44.594;11.368;2024-03-29T01:52:56;11.20;99.90
44271;DHT22;29963;44.594;11.368;2024-03-29T01:55:23;11.20;99.90
44271;DHT22;29963;44.594;11.368;2024-03-29T01:57:50;11.20;99.90
44271;DHT22;29963;44.594;11.368;2024-03-29T02:00:16;11.20;99.90
44271;DHT22;29963;44.594;11.368;2024-03-29T02:02:42;11.20;99.90
44271;DHT22;29963;44.594;11.368;2024-03-29T02:05:07;11.20;99.90
44271;DHT22;29963;44.594;11.368;2024-03-29T02:07:33;11.20;99.90
44271;DHT22;29963;44.594;11.368;2024-03-29T02:09:59;11.10;99.90
44271;DHT22;29963;44.594;11.368;2024-03-29T02:12:25;11.10;99.90
44271;DHT22;29963;44.594;11.368;2024-03-29T02:14:51;11.10;99.90
44271;DHT22;29963;44.594;11.368;2024-03-29T02:17:16;11.10;99.90
44271;DHT22;29963;44.594;11.368;2024-03-29T02:19:42;11.10;99.90
44271;DHT22;29963;44.594;11.368;2024-03-29T02:22:10;11.10;99.90
44271;DHT22;29963;44.594;11.368;2024-03-29T02:24:36;11.10;99.90
44271;DHT22;29963;44.594;11.368;2024-03-29T02:27:02;11.10;99.90
44271;DHT22;29963;44.594;11.368;2024-03-29T02:29:29;11.00;99.90
44271;DHT22;29963;44.594;11.368;2024-03-29T02:31:55;11.00;99.90
44271;DHT22;29963;44.594;11.368;2024-03-29T02:34:21;11.00;99.90
44271;DHT22;29963;44.594;11.368;2024-03-29T02:36:47;11.00;99.90
44271;DHT22;29963;44.594;11.368;2024-03-29T02:39:12;11.00;99.90
44271;DHT22;29963;44.594;11.368;2024-03-29T02:41:38;11.00;99.90
44271;DHT22;29963;44.594;11.368;2024-03-29T02:44:04;11.00;99.90
44271;DHT22;29963;44.594;11.368;2024-03-29T02:46:29;11.00;99.90
44271;DHT22;29963;44.594;11.368;2024-03-29T02:48:55;11.00;99.90
44271;DHT22;29963;44.594;11.368;2024-03-29T02:51:20;10.90;99.90
44271;DHT22;29963;44.594;11.368;2024-03-29T02:53:46;11.00;99.90
44271;DHT22;29963;44.594;11.368;2024-03-29T02:56:11;11.00;99.90
44271;DHT22;29963;44.594;11.368;2024-03-29T02:58:38;11.00;99.90
44271;DHT22;29963;44.594;11.368;2024-03-29T03:01:08;11.00;99.90
44271;DHT22;29963;44.594;11.368;2024-03-29T03:03:35;11.00;99.90
44271;DHT22;29963;44.594;11.368;2024-03-29T03:06:01;11.00;99.90
44271;DHT22;29963;44.594;11.368;2024-03-29T03:08:26;11.00;99.90
44271;DHT22;29963;44.594;11.368;2024-03-29T03:11:10;11.00;99.90
44271;DHT22;29963;44.594;11.368;2024-03-29T03:13:36;11.00;99.90
44271;DHT22;29963;44.594;11.368;2024-03-29T03:16:02;11.00;99.90
44271;DHT22;29963;44.594;11.368;2024-03-29T03:18:28;11.10;99.90
44271;DHT22;29963;44.594;11.368;2024-03-29T03:20:54;11.10;99.90
44271;DHT22;29963;44.594;11.368;2024-03-29T03:23:21;11.10;99.90
44271;DHT22;29963;44.594;11.368;2024-03-29T03:25:56;11.10;99.90
44271;DHT22;29963;44.594;11.368;2024-03-29T03:28:22;11.10;99.90
44271;DHT22;29963;44.594;11.368;2024-03-29T03:30:52;11.10;99.90
44271;DHT22;29963;44.594;11.368;2024-03-29T03:33:17;11.00;99.90
44271;DHT22;29963;44.594;11.368;2024-03-29T03:35:43;11.00;99.90
44271;DHT22;29963;44.594;11.368;2024-03-29T03:38:09;11.00;99.90
44271;DHT22;29963;44.594;11.368;2024-03-29T03:40:35;10.90;99.90
44271;DHT22;29963;44.594;11.368;2024-03-29T03:43:05;10.90;99.90
44271;DHT22;29963;44.594;11.368;2024-03-29T03:45:38;11.00;99.90
44271;DHT22;29963;44.594;11.368;2024-03-29T03:48:08;11.00;99.90
44271;DHT22;29963;44.594;11.368;2024-03-29T03:50:35;11.00;99.90
44271;DHT22;29963;44.594;11.368;2024-03-29T03:53:01;11.00;99.90
44271;DHT22;29963;44.594;11.368;2024-03-29T03:55:27;11.00;99.90
44271;DHT22;29963;44.594;11.368;2024-03-29T03:57:53;11.00;99.90
44271;DHT22;29963;44.594;11.368;2024-03-29T04:00:20;11.00;99.90
44271;DHT22;29963;44.594;11.368;2024-03-29T04:02:49;11.00;99.90
44271;DHT22;29963;44.594;11.368;2024-03-29T04:05:19;11.10;99.90
44271;DHT22;29963;44.594;11.368;2024-03-29T04:07:45;11.10;99.90
44271;DHT22;29963;44.594;11.368;2024-03-29T04:10:11;11.10;99.90
44271;DHT22;29963;44.594;11.368;2024-03-29T04:12:37;11.00;99.90
44271;DHT22;29963;44.594;11.368;2024-03-29T04:15:03;11.00;99.90
44271;DHT22;29963;44.594;11.368;2024-03-29T04:17:29;11.00;99.90
44271;DHT22;29963;44.594;11.368;2024-03-29T04:19:59;11.00;99.90
44271;DHT22;29963;44.594;11.368;2024-03-29T04:22:27;11.00;99.90
44271;DHT22;29963;44.594;11.368;2024-03-29T04:24:53;11.00;99.90
44271;DHT22;29963;44.594;11.368;2024-03-29T04:27:19;11.00;99.90
44271;DHT22;29963;44.594;11.368;2024-03-29T04:29:44;11.00;99.90
44271;DHT22;29963;44.594;11.368;2024-03-29T04:32:10;11.00;99.90
44271;DHT22;29963;44.594;11.368;2024-03-29T04:34:36;11.10;99.90
44271;DHT22;29963;44.594;11.368;2024-03-29T04:37:02;11.00;99.90
44271;DHT22;29963;44.594;11.368;2024-03-29T04:39:27;11.00;99.90
44271;DHT22;29963;44.594;11.368;2024-03-29T04:41:53;10.90;99.90
44271;DHT22;29963;44.594;11.368;2024-03-29T04:44:24;11.00;99.90
44271;DHT22;29963;44.594;11.368;2024-03-29T04:46:51;11.00;99.90
44271;DHT22;29963;44.594;11.368;2024-03-29T04:49:19;10.90;99.90
44271;DHT22;29963;44.594;11.368;2024-03-29T04:51:49;10.90;99.90
44271;DHT22;29963;44.594;11.368;2024-03-29T04:54:15;10.90;99.90
44271;DHT22;29963;44.594;11.368;2024-03-29T04:56:41;10.80;99.90
44271;DHT22;29963;44.594;11.368;2024-03-29T04:59:07;10.90;99.90
44271;DHT22;29963;44.594;11.368;2024-03-29T05:01:35;10.90;99.90
44271;DHT22;29963;44.594;11.368;2024-03-29T05:04:01;10.90;99.90
44271;DHT22;29963;44.594;11.368;2024-03-29T05:06:27;10.90;99.90
44271;DHT22;29963;44.594;11.368;2024-03-29T05:08:52;10.90;99.90
44271;DHT22;29963;44.594;11.368;2024-03-29T05:11:18;10.80;99.90
44271;DHT22;29963;44.594;11.368;2024-03-29T05:13:44;10.80;99.90
44271;DHT22;29963;44.594;11.368;2024-03-29T05:16:10;10.80;99.90
44271;DHT22;29963;44.594;11.368;2024-03-29T05:18:36;10.80;99.90
44271;DHT22;29963;44.594;11.368;2024-03-29T05:21:02;10.80;99.90
44271;DHT22;29963;44.594;11.368;2024-03-29T05:23:27;10.80;99.90
44271;DHT22;29963;44.594;11.368;2024-03-29T05:25:53;10.80;99.90
44271;DHT22;29963;44.594;11.368;2024-03-29T05:28:19;10.80;99.90
44271;DHT22;29963;44.594;11.368;2024-03-29T05:30:45;10.80;99.90
44271;DHT22;29963;44.594;11.368;2024-03-29T05:33:10;10.80;99.90
44271;DHT22;29963;44.594;11.368;2024-03-29T05:35:36;10.80;99.90
44271;DHT22;29963;44.594;11.368;2024-03-29T05:38:01;10.90;99.90
44271;DHT22;29963;44.594;11.368;2024-03-29T05:40:28;10.90;99.90
44271;DHT22;29963;44.594;11.368;2024-03-29T05:42:54;10.90;99.90
44271;DHT22;29963;44.594;11.368;2024-03-29T05:45:28;10.90;99.90
44271;DHT22;29963;44.594;11.368;2024-03-29T05:47:55;10.90;99.90
44271;DHT22;29963;44.594;11.368;2024-03-29T05:50:22;11.00;99.90
44271;DHT22;29963;44.594;11.368;2024-03-29T05:52:48;11.00;99.90
44271;DHT22;29963;44.594;11.368;2024-03-29T05:55:14;11.00;99.90
44271;DHT22;29963;44.594;11.368;2024-03-29T05:57:40;11.10;99.90
44271;DHT22;29963;44.594;11.368;2024-03-29T06:00:11;11.10;99.90
44271;DHT22;29963;44.594;11.368;2024-03-29T06:02:37;11.10;99.90
44271;DHT22;29963;44.594;11.368;2024-03-29T06:05:03;11.10;99.90
44271;DHT22;29963;44.594;11.368;2024-03-29T06:07:31;11.10;99.90
44271;DHT22;29963;44.594;11.368;2024-03-29T06:09:59;11.10;99.90
44271;DHT22;29963;44.594;11.368;2024-03-29T06:12:26;11.20;99.90
44271;DHT22;29963;44.594;11.368;2024-03-29T06:14:52;11.20;99.90
44271;DHT22;29963;44.594;11.368;2024-03-29T06:17:36;11.30;99.90
44271;DHT22;29963;44.594;11.368;2024-03-29T06:20:03;11.40;99.90
44271;DHT22;29963;44.594;11.368;2024-03-29T06:22:29;11.40;99.90
44271;DHT22;29963;44.594;11.368;2024-03-29T06:24:58;11.40;99.90
44271;DHT22;29963;44.594;11.368;2024-03-29T06:27:25;11.40;99.90
44271;DHT22;29963;44.594;11.368;2024-03-29T06:29:50;11.40;99.90
44271;DHT22;29963;44.594;11.368;2024-03-29T06:32:16;11.40;99.90
44271;DHT22;29963;44.594;11.368;2024-03-29T06:34:46;11.50;99.90
44271;DHT22;29963;44.594;11.368;2024-03-29T06:37:12;11.50;99.90
44271;DHT22;29963;44.594;11.368;2024-03-29T06:39:38;11.50;99.90
44271;DHT22;29963;44.594;11.368;2024-03-29T06:42:04;11.50;99.90
44271;DHT22;29963;44.594;11.368;2024-03-29T06:44:32;11.70;99.90
44271;DHT22;29963;44.594;11.368;2024-03-29T06:46:58;11.60;99.90
44271;DHT22;29963;44.594;11.368;2024-03-29T06:49:23;11.70;99.90
44271;DHT22;29963;44.594;11.368;2024-03-29T06:51:49;11.70;99.90
44271;DHT22;29963;44.594;11.368;2024-03-29T06:54:15;11.70;99.90
44271;DHT22;29963;44.594;11.368;2024-03-29T06:56:40;11.80;99.90
44271;DHT22;29963;44.594;11.368;2024-03-29T06:59:06;11.80;99.90
44271;DHT22;29963;44.594;11.368;2024-03-29T07:01:31;11.90;99.90
44271;DHT22;29963;44.594;11.368;2024-03-29T07:03:57;11.90;99.90
44271;DHT22;29963;44.594;11.368;2024-03-29T07:06:23;11.90;99.90
44271;DHT22;29963;44.594;11.368;2024-03-29T07:08:48;11.90;99.90
44271;DHT22;29963;44.594;11.368;2024-03-29T07:11:14;12.00;99.90
44271;DHT22;29963;44.594;11.368;2024-03-29T07:13:40;12.10;99.90
44271;DHT22;29963;44.594;11.368;2024-03-29T07:16:05;12.20;99.90
44271;DHT22;29963;44.594;11.368;2024-03-29T07:18:32;12.30;99.90
44271;DHT22;29963;44.594;11.368;2024-03-29T07:20:58;12.30;99.90
44271;DHT22;29963;44.594;11.368;2024-03-29T07:23:24;12.40;99.90
44271;DHT22;29963;44.594;11.368;2024-03-29T07:26:01;12.40;99.90
44271;DHT22;29963;44.594;11.368;2024-03-29T07:28:27;12.50;99.90
44271;DHT22;29963;44.594;11.368;2024-03-29T07:30:53;12.50;99.90
44271;DHT22;29963;44.594;11.368;2024-03-29T07:33:20;12.60;99.90
44271;DHT22;29963;44.594;11.368;2024-03-29T07:35:49;12.60;99.90
44271;DHT22;29963;44.594;11.368;2024-03-29T07:38:15;12.70;99.90
44271;DHT22;29963;44.594;11.368;2024-03-29T07:40:46;12.80;99.90
44271;DHT22;29963;44.594;11.368;2024-03-29T07:43:13;12.80;99.90
44271;DHT22;29963;44.594;11.368;2024-03-29T07:45:42;12.90;99.90
44271;DHT22;29963;44.594;11.368;2024-03-29T07:48:12;12.90;99.90
44271;DHT22;29963;44.594;11.368;2024-03-29T07:50:45;12.90;99.90
44271;DHT22;29963;44.594;11.368;2024-03-29T07:53:11;13.00;99.90
44271;DHT22;29963;44.594;11.368;2024-03-29T07:55:38;13.00;99.90
44271;DHT22;29963;44.594;11.368;2024-03-29T07:58:05;13.00;99.90
44271;DHT22;29963;44.594;11.368;2024-03-29T08:00:32;13.10;99.90
44271;DHT22;29963;44.594;11.368;2024-03-29T08:03:01;13.10;99.90
44271;DHT22;29963;44.594;11.368;2024-03-29T08:05:27;13.20;99.90
44271;DHT22;29963;44.594;11.368;2024-03-29T08:07:54;13.30;99.90
44271;DHT22;29963;44.594;11.368;2024-03-29T08:10:20;13.40;99.90
44271;DHT22;29963;44.594;11.368;2024-03-29T08:12:46;13.30;99.90
44271;DHT22;29963;44.594;11.368;2024-03-29T08:15:11;13.40;99.90
44271;DHT22;29963;44.594;11.368;2024-03-29T08:17:37;13.40;99.90
44271;DHT22;29963;44.594;11.368;2024-03-29T08:20:04;13.40;99.90
44271;DHT22;29963;44.594;11.368;2024-03-29T08:22:30;13.40;99.90
44271;DHT22;29963;44.594;11.368;2024-03-29T08:24:59;13.50;99.90
44271;DHT22;29963;44.594;11.368;2024-03-29T08:27:25;13.50;99.90
44271;DHT22;29963;44.594;11.368;2024-03-29T08:29:51;13.60;99.90
44271;DHT22;29963;44.594;11.368;2024-03-29T08:32:17;13.60;99.90
44271;DHT22;29963;44.594;11.368;2024-03-29T08:34:43;13.70;99.90
44271;DHT22;29963;44.594;11.368;2024-03-29T08:37:09;13.80;99.90
44271;DHT22;29963;44.594;11.368;2024-03-29T08:39:35;13.90;99.90
44271;DHT22;29963;44.594;11.368;2024-03-29T08:42:06;14.00;99.90
44271;DHT22;29963;44.594;11.368;2024-03-29T08:44:32;14.10;99.90
44271;DHT22;29963;44.594;11.368;2024-03-29T08:46:59;14.20;99.90
44271;DHT22;29963;44.594;11.368;2024-03-29T08:49:27;14.30;99.90
44271;DHT22;29963;44.594;11.368;2024-03-29T08:51:52;14.40;99.90
44271;DHT22;29963;44.594;11.368;2024-03-29T08:54:18;14.50;99.90
44271;DHT22;29963;44.594;11.368;2024-03-29T08:56:44;14.50;99.90
44271;DHT22;29963;44.594;11.368;2024-03-29T08:59:10;14.60;99.90
44271;DHT22;29963;44.594;11.368;2024-03-29T09:01:38;14.70;99.90
44271;DHT22;29963;44.594;11.368;2024-03-29T09:04:04;14.80;99.90
44271;DHT22;29963;44.594;11.368;2024-03-29T09:06:32;14.80;99.90
44271;DHT22;29963;44.594;11.368;2024-03-29T09:08:58;14.90;99.90
44271;DHT22;29963;44.594;11.368;2024-03-29T09:11:24;15.00;99.90
44271;DHT22;29963;44.594;11.368;2024-03-29T09:13:50;15.00;99.90
44271;DHT22;29963;44.594;11.368;2024-03-29T09:16:15;15.10;99.90
44271;DHT22;29963;44.594;11.368;2024-03-29T09:18:41;15.10;99.90
44271;DHT22;29963;44.594;11.368;2024-03-29T09:21:07;15.10;99.90
44271;DHT22;29963;44.594;11.368;2024-03-29T09:23:34;15.30;99.90
44271;DHT22;29963;44.594;11.368;2024-03-29T09:26:00;15.30;99.90
44271;DHT22;29963;44.594;11.368;2024-03-29T09:28:29;15.40;99.90
44271;DHT22;29963;44.594;11.368;2024-03-29T09:31:00;15.40;99.90
44271;DHT22;29963;44.594;11.368;2024-03-29T09:33:26;15.50;99.90
44271;DHT22;29963;44.594;11.368;2024-03-29T09:35:52;15.60;99.90
44271;DHT22;29963;44.594;11.368;2024-03-29T09:38:19;15.70;99.90
44271;DHT22;29963;44.594;11.368;2024-03-29T09:40:45;15.90;99.90
44271;DHT22;29963;44.594;11.368;2024-03-29T09:43:11;16.00;99.90
44271;DHT22;29963;44.594;11.368;2024-03-29T09:45:40;16.10;99.90
44271;DHT22;29963;44.594;11.368;2024-03-29T09:48:08;16.20;99.90
44271;DHT22;29963;44.594;11.368;2024-03-29T09:50:35;16.30;99.90
44271;DHT22;29963;44.594;11.368;2024-03-29T09:53:04;16.40;99.90
44271;DHT22;29963;44.594;11.368;2024-03-29T09:55:30;16.50;99.90
44271;DHT22;29963;44.594;11.368;2024-03-29T09:57:57;16.70;99.90
44271;DHT22;29963;44.594;11.368;2024-03-29T10:00:23;16.80;99.90
44271;DHT22;29963;44.594;11.368;2024-03-29T10:02:50;17.00;99.90
44271;DHT22;29963;44.594;11.368;2024-03-29T10:05:18;17.10;99.90
44271;DHT22;29963;44.594;11.368;2024-03-29T10:07:45;17.20;99.90
44271;DHT22;29963;44.594;11.368;2024-03-29T10:10:11;17.30;99.90
44271;DHT22;29963;44.594;11.368;2024-03-29T10:12:37;17.40;99.90
44271;DHT22;29963;44.594;11.368;2024-03-29T10:15:04;17.50;99.90
44271;DHT22;29963;44.594;11.368;2024-03-29T10:17:55;17.60;99.90
44271;DHT22;29963;44.594;11.368;2024-03-29T10:20:21;17.70;99.90
44271;DHT22;29963;44.594;11.368;2024-03-29T10:22:48;17.80;99.90
44271;DHT22;29963;44.594;11.368;2024-03-29T10:25:14;17.90;99.90
44271;DHT22;29963;44.594;11.368;2024-03-29T10:27:41;18.10;99.90
44271;DHT22;29963;44.594;11.368;2024-03-29T10:30:07;18.40;99.90
44271;DHT22;29963;44.594;11.368;2024-03-29T10:32:37;18.60;99.90
44271;DHT22;29963;44.594;11.368;2024-03-29T10:35:02;18.80;99.90
44271;DHT22;29963;44.594;11.368;2024-03-29T10:37:28;18.90;99.90
44271;DHT22;29963;44.594;11.368;2024-03-29T10:39:55;19.10;99.90
44271;DHT22;29963;44.594;11.368;2024-03-29T10:42:24;19.30;99.90
44271;DHT22;29963;44.594;11.368;2024-03-29T10:44:50;19.40;99.90
44271;DHT22;29963;44.594;11.368;2024-03-29T10:47:20;19.60;99.90
44271;DHT22;29963;44.594;11.368;2024-03-29T10:49:53;19.70;99.90
44271;DHT22;29963;44.594;11.368;2024-03-29T10:52:22;19.80;99.90
44271;DHT22;29963;44.594;11.368;2024-03-29T10:54:50;20.10;99.90
44271;DHT22;29963;44.594;11.368;2024-03-29T10:59:54;20.20;99.90
44271;DHT22;29963;44.594;11.368;2024-03-29T11:05:22;20.30;99.90
44271;DHT22;29963;44.594;11.368;2024-03-29T11:07:50;20.40;99.90
44271;DHT22;29963;44.594;11.368;2024-03-29T11:10:23;20.50;99.90
44271;DHT22;29963;44.594;11.368;2024-03-29T11:13:12;20.70;99.90
44271;DHT22;29963;44.594;11.368;2024-03-29T11:15:41;20.80;99.90
44271;DHT22;29963;44.594;11.368;2024-03-29T11:18:09;21.20;99.90
44271;DHT22;29963;44.594;11.368;2024-03-29T11:23:11;21.30;99.90
44271;DHT22;29963;44.594;11.368;2024-03-29T11:25:41;21.20;99.90
44271;DHT22;29963;44.594;11.368;2024-03-29T11:28:07;21.20;99.90
44271;DHT22;29963;44.594;11.368;2024-03-29T11:30:41;21.30;99.90
44271;DHT22;29963;44.594;11.368;2024-03-29T11:33:08;21.30;99.90
44271;DHT22;29963;44.594;11.368;2024-03-29T11:35:39;21.40;99.90
44271;DHT22;29963;44.594;11.368;2024-03-29T11:40:31;21.40;99.90
44271;DHT22;29963;44.594;11.368;2024-03-29T11:42:57;21.50;99.90
44271;DHT22;29963;44.594;11.368;2024-03-29T11:45:25;21.40;99.90
44271;DHT22;29963;44.594;11.368;2024-03-29T11:47:57;21.40;99.90
44271;DHT22;29963;44.594;11.368;2024-03-29T11:50:28;21.60;99.90
44271;DHT22;29963;44.594;11.368;2024-03-29T11:52:53;21.50;99.90
44271;DHT22;29963;44.594;11.368;2024-03-29T11:55:19;21.70;99.90
44271;DHT22;29963;44.594;11.368;2024-03-29T11:57:45;21.90;99.90
44271;DHT22;29963;44.594;11.368;2024-03-29T12:00:11;21.70;99.90
44271;DHT22;29963;44.594;11.368;2024-03-29T12:02:36;21.80;99.90
44271;DHT22;29963;44.594;11.368;2024-03-29T12:05:07;22.00;99.90
44271;DHT22;29963;44.594;11.368;2024-03-29T12:07:33;22.00;99.90
44271;DHT22;29963;44.594;11.368;2024-03-29T12:09:59;22.00;99.90
44271;DHT22;29963;44.594;11.368;2024-03-29T12:12:25;22.10;99.90
44271;DHT22;29963;44.594;11.368;2024-03-29T12:17:16;21.90;99.90
44271;DHT22;29963;44.594;11.368;2024-03-29T12:19:42;22.10;99.90
44271;DHT22;29963;44.594;11.368;2024-03-29T12:22:09;22.40;99.90
44271;DHT22;29963;44.594;11.368;2024-03-29T12:24:35;22.30;99.90
44271;DHT22;29963;44.594;11.368;2024-03-29T12:27:01;22.30;99.90
44271;DHT22;29963;44.594;11.368;2024-03-29T12:29:28;22.30;99.90
44271;DHT22;29963;44.594;11.368;2024-03-29T12:32:02;22.30;99.90
44271;DHT22;29963;44.594;11.368;2024-03-29T12:34:30;22.40;99.90
44271;DHT22;29963;44.594;11.368;2024-03-29T12:36:57;22.50;99.90
44271;DHT22;29963;44.594;11.368;2024-03-29T12:39:23;22.60;99.90
44271;DHT22;29963;44.594;11.368;2024-03-29T12:41:51;22.60;99.90
44271;DHT22;29963;44.594;11.368;2024-03-29T12:44:19;22.60;99.90
44271;DHT22;29963;44.594;11.368;2024-03-29T12:46:44;22.70;99.90
44271;DHT22;29963;44.594;11.368;2024-03-29T12:49:11;22.60;99.90
44271;DHT22;29963;44.594;11.368;2024-03-29T12:51:40;22.70;99.90
44271;DHT22;29963;44.594;11.368;2024-03-29T12:54:05;23.00;99.90
44271;DHT22;29963;44.594;11.368;2024-03-29T12:56:31;22.80;99.90
44271;DHT22;29963;44.594;11.368;2024-03-29T12:58:57;22.90;99.90
44271;DHT22;29963;44.594;11.368;2024-03-29T13:01:23;23.00;99.90
44271;DHT22;29963;44.594;11.368;2024-03-29T13:03:48;23.00;99.90
44271;DHT22;29963;44.594;11.368;2024-03-29T13:06:14;23.10;99.90
44271;DHT22;29963;44.594;11.368;2024-03-29T13:08:40;23.10;99.90
44271;DHT22;29963;44.594;11.368;2024-03-29T13:11:05;23.20;99.90
44271;DHT22;29963;44.594;11.368;2024-03-29T13:13:31;23.20;99.90
44271;DHT22;29963;44.594;11.368;2024-03-29T13:15:57;23.20;99.90
44271;DHT22;29963;44.594;11.368;2024-03-29T13:18:22;23.50;99.90
44271;DHT22;29963;44.594;11.368;2024-03-29T13:20:48;23.20;99.90
44271;DHT22;29963;44.594;11.368;2024-03-29T13:23:13;23.30;99.90
44271;DHT22;29963;44.594;11.368;2024-03-29T13:25:39;23.50;99.90
44271;DHT22;29963;44.594;11.368;2024-03-29T13:28:05;23.40;99.90
44271;DHT22;29963;44.594;11.368;2024-03-29T13:30:32;23.50;99.90
44271;DHT22;29963;44.594;11.368;2024-03-29T13:32:58;23.50;99.90
44271;DHT22;29963;44.594;11.368;2024-03-29T13:35:24;23.50;99.90
44271;DHT22;29963;44.594;11.368;2024-03-29T13:37:51;23.40;99.90
44271;DHT22;29963;44.594;11.368;2024-03-29T13:40:22;23.30;99.90
44271;DHT22;29963;44.594;11.368;2024-03-29T13:42:48;23.20;99.90
44271;DHT22;29963;44.594;11.368;2024-03-29T13:45:14;23.00;99.90
44271;DHT22;29963;44.594;11.368;2024-03-29T13:47:41;22.80;99.90
44271;DHT22;29963;44.594;11.368;2024-03-29T13:50:08;22.50;99.90
44271;DHT22;29963;44.594;11.368;2024-03-29T13:52:35;22.40;99.90
44271;DHT22;29963;44.594;11.368;2024-03-29T13:55:01;22.40;99.90
44271;DHT22;29963;44.594;11.368;2024-03-29T13:57:28;22.30;99.90
44271;DHT22;29963;44.594;11.368;2024-03-29T13:59:54;22.20;99.90
44271;DHT22;29963;44.594;11.368;2024-03-29T14:02:20;22.10;99.90
44271;DHT22;29963;44.594;11.368;2024-03-29T14:04:46;22.00;99.90
44271;DHT22;29963;44.594;11.368;2024-03-29T14:07:14;22.00;99.90
44271;DHT22;29963;44.594;11.368;2024-03-29T14:09:40;21.90;99.90
44271;DHT22;29963;44.594;11.368;2024-03-29T14:12:06;21.80;99.90
44271;DHT22;29963;44.594;11.368;2024-03-29T14:14:32;21.70;99.90
44271;DHT22;29963;44.594;11.368;2024-03-29T14:16:58;21.70;99.90
44271;DHT22;29963;44.594;11.368;2024-03-29T14:19:28;21.60;99.90
44271;DHT22;29963;44.594;11.368;2024-03-29T14:21:54;21.60;99.90
44271;DHT22;29963;44.594;11.368;2024-03-29T14:24:19;21.50;99.90
44271;DHT22;29963;44.594;11.368;2024-03-29T14:26:45;21.50;99.90
44271;DHT22;29963;44.594;11.368;2024-03-29T14:29:10;21.60;99.90
44271;DHT22;29963;44.594;11.368;2024-03-29T14:31:40;21.50;99.90
44271;DHT22;29963;44.594;11.368;2024-03-29T14:34:06;21.50;99.90
44271;DHT22;29963;44.594;11.368;2024-03-29T14:36:31;21.40;99.90
44271;DHT22;29963;44.594;11.368;2024-03-29T14:38:58;21.40;99.90
44271;DHT22;29963;44.594;11.368;2024-03-29T14:41:26;21.30;99.90
44271;DHT22;29963;44.594;11.368;2024-03-29T14:43:52;21.30;99.90
44271;DHT22;29963;44.594;11.368;2024-03-29T14:46:18;21.20;99.90
44271;DHT22;29963;44.594;11.368;2024-03-29T14:48:46;21.20;99.90
44271;DHT22;29963;44.594;11.368;2024-03-29T14:51:12;21.20;99.90
44271;DHT22;29963;44.594;11.368;2024-03-29T14:53:38;21.20;99.90
44271;DHT22;29963;44.594;11.368;2024-03-29T14:56:03;21.20;99.90
44271;DHT22;29963;44.594;11.368;2024-03-29T14:58:29;21.10;99.90
44271;DHT22;29963;44.594;11.368;2024-03-29T15:00:55;21.00;99.90
44271;DHT22;29963;44.594;11.368;2024-03-29T15:03:21;21.00;99.90
44271;DHT22;29963;44.594;11.368;2024-03-29T15:05:46;20.90;99.90
44271;DHT22;29963;44.594;11.368;2024-03-29T15:08:12;20.80;99.90
44271;DHT22;29963;44.594;11.368;2024-03-29T15:10:42;20.80;99.90
44271;DHT22;29963;44.594;11.368;2024-03-29T15:13:08;20.80;99.90
44271;DHT22;29963;44.594;11.368;2024-03-29T15:15:34;20.80;99.90
44271;DHT22;29963;44.594;11.368;2024-03-29T15:18:03;20.90;99.90
44271;DHT22;29963;44.594;11.368;2024-03-29T15:20:29;20.90;99.90
44271;DHT22;29963;44.594;11.368;2024-03-29T15:22:55;20.90;99.90
44271;DHT22;29963;44.594;11.368;2024-03-29T15:25:22;20.90;99.90